Station: EBLG - 22/02/2019 14:50Z (il y a 27 minutes)
EBLG 221450Z 02003KT 350V090 4500 BR BKN008 11/09 Q1036 BECMG NSW
Vent du 020º - 3 kt (vent de direction variable de 350º à 090º)
Visibilité: 4500 m (brume)
Ciel 75% couvert à 800 pieds
Température: +11ºC - Point de rosée: +09ºC - QNH: 1036 hPa
Evoluant vers
Code: NSW